Time;durP1;ratioP1;P1;durP2;ratioP2;P2;SDS_P1;SDS_P2;PMS_P1;PMS_P2;Temp;Humidity;BMP_temperature;BMP_pressure;BME280_temperature;BME280_humidity;BME280_pressure;Samples;Min_cycle;Max_cycle;Signal;HPM_P1;HPM_P2
2020/12/17 00:10:53;;;;;;;17.55;13.27;;;;;;;17.80;46.19;101463.75;31611116;28;20060;-63
2020/12/17 00:25:54;;;;;;;16.17;12.82;;;;;;;17.75;46.24;101454.47;31608223;28;20535;-62
2020/12/17 00:40:55;;;;;;;16.50;13.10;;;;;;;17.79;46.05;101461.19;31603171;28;20048;-62
2020/12/17 00:55:56;;;;;;;17.48;12.65;;;;;;;17.75;45.73;101454.47;31603958;28;20440;-62
2020/12/17 01:10:57;;;;;;;18.35;13.32;;;;;;;17.69;45.80;101441.75;31627495;28;20028;-63
2020/12/17 01:25:57;;;;;;;15.98;12.70;;;;;;;17.62;45.91;101440.50;31568470;28;20052;-62
2020/12/17 01:40:58;;;;;;;17.52;12.68;;;;;;;17.57;45.49;101422.41;31609250;28;20040;-62
2020/12/17 01:56:00;;;;;;;15.85;12.32;;;;;;;17.51;45.75;101400.00;31626853;28;20032;-62
2020/12/17 02:11:01;;;;;;;16.20;11.68;;;;;;;17.47;45.56;101374.88;31625659;28;20027;-61
2020/12/17 02:26:02;;;;;;;15.80;12.23;;;;;;;17.40;45.56;101384.13;31616325;28;20024;-62
2020/12/17 02:41:03;;;;;;;15.20;12.02;;;;;;;17.41;45.48;101405.97;31515700;28;20433;-62
2020/12/17 02:56:04;;;;;;;14.90;11.18;;;;;;;17.37;45.21;101411.47;31493009;28;20049;-62
2020/12/17 03:11:05;;;;;;;15.27;11.10;;;;;;;17.36;45.47;101419.44;31490729;28;20036;-62
2020/12/17 03:26:07;;;;;;;13.43;10.65;;;;;;;17.33;45.32;101409.97;31488170;28;20044;-62
2020/12/17 03:41:08;;;;;;;14.82;11.30;;;;;;;17.28;45.55;101398.94;31594745;28;20024;-62
2020/12/17 03:56:09;;;;;;;14.60;11.10;;;;;;;17.25;45.53;101403.56;31612801;28;20036;-62
2020/12/17 04:11:10;;;;;;;14.48;10.68;;;;;;;17.20;45.40;101406.50;31611882;28;20044;-61
2020/12/17 04:26:15;;;;;;;13.32;10.35;;;;;;;17.16;45.45;101403.25;31609480;28;20039;-62
2020/12/17 04:41:17;;;;;;;13.38;10.02;;;;;;;17.12;45.37;101393.88;31513361;28;20037;-62
2020/12/17 04:56:18;;;;;;;14.30;10.50;;;;;;;17.07;45.48;101376.75;31508185;28;20032;-62
2020/12/17 05:11:19;;;;;;;12.65;10.02;;;;;;;17.02;45.28;101381.44;31505446;28;20027;-60
2020/12/17 05:26:23;;;;;;;13.27;10.23;;;;;;;16.99;45.33;101368.53;31503486;28;20482;-62
2020/12/17 05:41:24;;;;;;;12.85;10.27;;;;;;;16.96;45.12;101383.56;31613160;28;20043;-62
2020/12/17 05:56:25;;;;;;;12.15;9.68;;;;;;;16.91;45.37;101384.81;31628165;28;20093;-62
2020/12/17 06:11:26;;;;;;;12.82;10.20;;;;;;;16.87;45.34;101370.19;31609079;28;20016;-61
2020/12/17 06:26:27;;;;;;;12.77;9.70;;;;;;;16.78;45.30;101371.59;31606800;28;20098;-61
2020/12/17 06:41:28;;;;;;;12.77;9.80;;;;;;;16.74;45.27;101362.25;31589257;28;20050;-62
2020/12/17 06:56:29;;;;;;;23.52;16.42;;;;;;;15.61;38.61;101339.66;31639185;28;20444;-62
2020/12/17 07:11:43;;;;;;;27.42;18.65;;;;;;;12.79;41.24;101363.84;31618967;28;20085;-61
2020/12/17 07:26:44;;;;;;;21.88;15.38;;;;;;;12.75;46.97;101373.56;31636222;28;20035;-62
2020/12/17 07:41:45;;;;;;;19.15;13.40;;;;;;;14.25;45.20;101387.66;31622865;28;20028;-66
2020/12/17 07:56:51;;;;;;;17.60;12.30;;;;;;;14.94;44.50;101378.56;31662388;28;20043;-65
2020/12/17 08:11:55;;;;;;;13.75;10.70;;;;;;;15.27;44.02;101375.72;31653225;28;20028;-64
2020/12/17 08:26:56;;;;;;;15.30;11.02;;;;;;;15.45;43.61;101362.47;31631284;28;20035;-65
2020/12/17 08:41:57;;;;;;;15.50;11.90;;;;;;;15.49;45.12;101372.69;31615583;28;20088;-65
2020/12/17 08:56:59;;;;;;;15.10;11.63;;;;;;;15.69;45.09;101383.72;31623975;28;20043;-64
2020/12/17 09:12:01;;;;;;;15.15;11.00;;;;;;;15.93;45.11;101389.28;31636765;28;20358;-64
2020/12/17 09:27:15;;;;;;;13.80;10.75;;;;;;;16.27;44.69;101374.88;31652419;28;20036;-63
2020/12/17 09:42:16;;;;;;;16.67;9.93;;;;;;;16.54;44.30;101377.53;31653856;28;20539;-63
2020/12/17 09:57:17;;;;;;;15.70;9.85;;;;;;;16.71;44.30;101378.22;31703573;28;20082;-62
2020/12/17 10:12:18;;;;;;;11.85;9.05;;;;;;;17.28;43.16;101351.66;31637862;28;20030;-66
2020/12/17 10:27:19;;;;;;;13.10;8.85;;;;;;;18.30;40.81;101340.13;31669526;28;20047;-63
2020/12/17 10:42:21;;;;;;;11.63;9.10;;;;;;;18.98;39.07;101332.50;31641297;28;20031;-62
2020/12/17 10:57:22;;;;;;;11.00;8.40;;;;;;;19.46;38.67;101319.97;31681362;28;20294;-63
2020/12/17 11:12:23;;;;;;;14.90;10.32;;;;;;;18.15;37.53;101312.31;31635458;28;20024;-64
2020/12/17 11:27:24;;;;;;;13.43;9.47;;;;;;;18.78;38.87;101332.22;31633380;28;20073;-63
2020/12/17 11:42:25;;;;;;;11.87;8.30;;;;;;;19.34;38.21;101312.22;31652979;28;20304;-62
2020/12/17 11:57:26;;;;;;;10.87;8.20;;;;;;;19.81;36.42;101299.72;31635727;28;20301;-60
2020/12/17 12:12:27;;;;;;;12.27;8.00;;;;;;;20.09;38.23;101306.28;31630803;28;20294;-63
2020/12/17 12:27:28;;;;;;;10.33;7.80;;;;;;;20.00;39.51;101299.94;31642534;28;20290;-61
2020/12/17 12:42:29;;;;;;;10.20;7.30;;;;;;;19.86;38.92;101281.75;31587717;28;20294;-58
2020/12/17 12:57:30;;;;;;;9.37;7.67;;;;;;;19.59;38.81;101280.31;31489836;28;20780;-63
2020/12/17 13:12:31;;;;;;;11.48;7.30;;;;;;;19.41;39.59;101305.50;31612323;28;20282;-60
2020/12/17 13:27:32;;;;;;;11.03;7.50;;;;;;;19.16;40.39;101307.38;31570995;28;20040;-62
2020/12/17 13:42:33;;;;;;;10.23;6.97;;;;;;;19.01;39.63;101337.53;31624324;28;20282;-63
2020/12/17 13:57:34;;;;;;;9.43;6.50;;;;;;;19.00;40.10;101336.69;31620617;28;20294;-62
2020/12/17 14:12:35;;;;;;;8.73;6.27;;;;;;;18.89;41.03;101334.03;31616726;28;20318;-64
2020/12/17 14:27:36;;;;;;;9.95;6.68;;;;;;;18.75;41.66;101363.19;31621920;28;20863;-59
2020/12/17 14:42:37;;;;;;;10.37;6.40;;;;;;;18.61;42.37;101385.25;31627061;28;20036;-61
2020/12/17 14:57:38;;;;;;;8.10;6.28;;;;;;;18.64;42.57;101408.72;31646761;28;20323;-59
2020/12/17 15:12:39;;;;;;;7.88;6.40;;;;;;;18.72;42.31;101413.44;31637658;28;20019;-60
2020/12/17 15:27:40;;;;;;;8.80;6.23;;;;;;;18.75;42.62;101434.28;31657744;28;20040;-62
2020/12/17 15:42:41;;;;;;;9.50;6.47;;;;;;;18.50;41.82;101446.59;31681380;28;20289;-62
2020/12/17 15:57:42;;;;;;;9.77;6.90;;;;;;;18.39;43.79;101471.06;31649480;28;20316;-62
2020/12/17 16:12:43;;;;;;;11.25;7.47;;;;;;;17.53;43.73;101473.50;31631409;28;20618;-60
2020/12/17 16:27:45;;;;;;;10.13;6.75;;;;;;;18.23;42.95;101490.66;31620912;28;20398;-61
2020/12/17 16:42:46;;;;;;;9.65;6.90;;;;;;;18.51;43.15;101492.16;31613575;28;20462;-59
2020/12/17 16:57:46;;;;;;;12.13;7.67;;;;;;;18.56;43.09;101501.44;31653968;28;20024;-60
2020/12/17 17:12:47;;;;;;;10.50;7.37;;;;;;;18.53;43.29;101506.94;31631550;28;20281;-61
2020/12/17 17:27:48;;;;;;;10.80;7.83;;;;;;;18.50;43.68;101507.13;31652650;28;20294;-61
2020/12/17 17:42:49;;;;;;;11.27;8.20;;;;;;;18.21;42.02;101510.03;31623481;28;20281;-61
2020/12/17 17:57:52;;;;;;;11.80;7.90;;;;;;;18.55;43.17;101520.81;31672997;28;20300;-61
2020/12/17 18:12:53;;;;;;;11.48;8.68;;;;;;;18.77;44.18;101537.75;31634408;28;20294;-62
2020/12/17 18:27:54;;;;;;;13.13;8.70;;;;;;;19.07;42.69;101555.75;31630894;28;20351;-63
2020/12/17 18:42:57;;;;;;;11.57;8.80;;;;;;;19.28;41.78;101563.06;31659898;28;20294;-61
2020/12/17 18:57:57;;;;;;;12.40;10.45;;;;;;;19.40;41.53;101568.28;31635205;28;20290;-62
2020/12/17 19:12:59;;;;;;;15.93;11.97;;;;;;;19.59;41.05;101580.09;31647811;27;20100;-61
2020/12/17 19:28:00;;;;;;;15.68;11.55;;;;;;;19.62;41.09;101595.69;31639576;28;20362;-61
2020/12/17 19:43:01;;;;;;;13.73;11.77;;;;;;;19.73;41.04;101603.66;31623383;28;20435;-62
2020/12/17 19:58:02;;;;;;;19.10;13.30;;;;;;;19.83;40.87;101614.34;31668236;28;20305;-59
2020/12/17 20:13:03;;;;;;;17.47;13.23;;;;;;;19.85;40.57;101610.66;31617679;28;20286;-63
2020/12/17 20:28:04;;;;;;;17.90;14.23;;;;;;;19.84;40.53;101622.16;31573293;28;20290;-62
2020/12/17 20:43:05;;;;;;;17.13;12.40;;;;;;;19.71;40.82;101629.31;31594203;28;20664;-62
2020/12/17 20:58:06;;;;;;;17.20;12.40;;;;;;;19.75;41.18;101627.31;31609414;28;20481;-65
2020/12/17 21:13:07;;;;;;;16.63;13.60;;;;;;;19.97;40.93;101637.91;31576917;28;20298;-66
2020/12/17 21:28:08;;;;;;;16.13;13.03;;;;;;;20.13;40.41;101648.13;31587338;28;20598;-64
2020/12/17 21:43:10;;;;;;;16.83;14.33;;;;;;;20.21;40.43;101653.69;31613407;28;20290;-66
2020/12/17 21:58:11;;;;;;;17.30;13.90;;;;;;;20.27;40.58;101671.72;31615796;28;20290;-66
2020/12/17 22:13:12;;;;;;;20.25;16.27;;;;;;;20.28;40.38;101667.28;31663282;28;20101;-65
2020/12/17 22:28:13;;;;;;;23.80;17.83;;;;;;;20.17;40.22;101669.88;31645314;28;20521;-66
2020/12/17 22:43:14;;;;;;;23.75;16.38;;;;;;;19.95;40.39;101675.91;31637011;28;20339;-62
2020/12/17 22:58:15;;;;;;;13.20;9.93;;;;;;;17.83;38.82;101669.63;31606848;28;20036;-60
2020/12/17 23:13:16;;;;;;;17.65;12.55;;;;;;;16.95;43.74;101693.56;31634457;28;20687;-59
2020/12/17 23:28:17;;;;;;;20.35;13.88;;;;;;;17.61;44.47;101693.78;31572644;28;20044;-61
2020/12/17 23:43:18;;;;;;;23.25;15.80;;;;;;;17.84;44.50;101702.84;31605593;28;20477;-62
2020/12/17 23:58:19;;;;;;;21.98;15.65;;;;;;;17.89;44.60;101703.41;31633478;28;20028;-60
